Terminal Aerodrome Forecast
Issued by NWS

Home | Current Version | Previous Version | Text Only | Print | Product List | Glossary On
Versions: 1 2 3 4 5 6 7 8 9 10 11 12 13 14 15 16 17 18 19 20 21 22 23 24 25 26 27 28 29 30 31 32 33 34
000
FTUS41 KOKX 041253 AAB
TAFGON
TAF AMD
KGON 041253Z 0413/0512 20005KT 1SM BR BKN003
      TEMPO 0413/0414 1/2SM FG VV002
     FM041400 20006KT P6SM VCFG SCT005 SCT250
      TEMPO 0414/0415 2SM BR BKN005
     FM041800 20010G16KT P6SM FEW100 SCT250
     FM042200 21009KT P6SM SCT250
     FM050300 22005KT P6SM SCT250=

USA.gov is the U.S. government's official web portal to all federal, state and local government web resources and services.